Time;durP1;ratioP1;P1;durP2;ratioP2;P2;SDS_P1;SDS_P2;PMS_P1;PMS_P2;Temp;Humidity;BMP_temperature;BMP_pressure;BME280_temperature;BME280_humidity;BME280_pressure;Samples;Min_cycle;Max_cycle;Signal;HPM_P1;HPM_P2
2022/11/01 00:00:34;;;;;;;;;;;;;;;13.49;100.00;100762.88;3058066;19;20361;-47
2022/11/01 00:01:39;;;;;;;;;;;;;;;13.49;100.00;100757.53;3057566;19;19979;-46
2022/11/01 00:02:41;;;;;;;;;;;;;;;13.48;100.00;100763.84;3057917;19;19930;-48
2022/11/01 00:03:45;;;;;;;;;;;;;;;13.49;100.00;100757.53;3057317;19;19923;-48
2022/11/01 00:04:47;;;;;;;;;;;;;;;13.50;100.00;100759.25;3057843;19;19919;-46
2022/11/01 00:05:51;;;;;;;;;;;;;;;13.50;100.00;100759.25;3057892;19;19950;-49
2022/11/01 00:06:53;;;;;;;;;;;;;;;13.51;100.00;100755.59;3057673;19;20310;-49
2022/11/01 00:07:58;;;;;;;;;;;;;;;13.52;100.00;100751.94;3056097;19;19947;-47
2022/11/01 00:09:00;;;;;;;;;;;;;;;13.52;100.00;100746.59;3056793;19;19935;-47
2022/11/01 00:10:05;;;;;;;;;;;;;;;13.51;100.00;100750.22;3057054;19;19927;-52
2022/11/01 00:11:07;;;;;;;;;;;;;;;13.50;100.00;100741.34;3057848;19;19935;-48
2022/11/01 00:12:12;;;;;;;;;;;;;;;13.47;100.00;100754.09;3056754;19;19922;-47
2022/11/01 00:13:14;;;;;;;;;;;;;;;13.46;100.00;100747.84;3057315;19;19914;-45
2022/11/01 00:14:19;;;;;;;;;;;;;;;13.44;100.00;100754.28;3056006;19;19919;-47
2022/11/01 00:15:21;;;;;;;;;;;;;;;13.42;100.00;100746.34;3057721;19;20357;-45
2022/11/01 00:16:25;;;;;;;;;;;;;;;13.41;100.00;100751.81;3057722;19;19922;-49
2022/11/01 00:17:27;;;;;;;;;;;;;;;13.36;100.00;100752.16;3057018;19;20333;-48
2022/11/01 00:18:31;;;;;;;;;;;;;;;13.37;100.00;100750.31;3057277;19;20006;-44
2022/11/01 00:19:33;;;;;;;;;;;;;;;13.35;100.00;100753.09;3057249;19;20302;-47
2022/11/01 00:20:38;;;;;;;;;;;;;;;13.33;100.00;100753.22;3057607;19;19929;-47
2022/11/01 00:21:39;;;;;;;;;;;;;;;13.35;100.00;100745.06;3057849;19;19925;-48
2022/11/01 00:22:44;;;;;;;;;;;;;;;13.36;100.00;100745.94;3057155;19;19942;-50
2022/11/01 00:23:46;;;;;;;;;;;;;;;13.33;100.00;100742.50;3056527;19;19944;-46
2022/11/01 00:24:50;;;;;;;;;;;;;;;13.33;100.00;100739.81;3056260;19;19923;-52
2022/11/01 00:25:59;;;;;;;;;;;;;;;13.31;100.00;100731.00;3057777;19;19918;-45
2022/11/01 00:27:03;;;;;;;;;;;;;;;13.31;100.00;100728.31;3057547;19;19923;-49
2022/11/01 00:28:05;;;;;;;;;;;;;;;13.32;100.00;100737.22;3057107;19;20306;-49
2022/11/01 00:29:09;;;;;;;;;;;;;;;13.31;100.00;100732.81;3057021;19;20269;-47
2022/11/01 00:30:11;;;;;;;;;;;;;;;13.30;100.00;100734.66;3057261;19;20248;-49
2022/11/01 00:31:16;;;;;;;;;;;;;;;13.31;100.00;100724.78;3056820;19;19943;-45
2022/11/01 00:32:18;;;;;;;;;;;;;;;13.32;100.00;100729.19;3056255;19;19939;-50
2022/11/01 00:33:22;;;;;;;;;;;;;;;13.32;100.00;100722.00;3057347;19;19943;-49
2022/11/01 00:34:24;;;;;;;;;;;;;;;13.32;100.00;100723.81;3056278;19;20373;-48
2022/11/01 00:35:28;;;;;;;;;;;;;;;13.32;100.00;100724.69;3057166;19;19943;-50
2022/11/01 00:36:31;;;;;;;;;;;;;;;13.31;100.00;100722.97;3057297;19;19922;-45
2022/11/01 00:37:36;;;;;;;;;;;;;;;13.32;100.00;100719.31;3056810;19;19925;-49
2022/11/01 00:38:38;;;;;;;;;;;;;;;13.31;100.00;100728.31;3056297;19;19934;-50
2022/11/01 00:39:42;;;;;;;;;;;;;;;13.30;100.00;100725.75;3056118;19;19915;-49
2022/11/01 00:40:44;;;;;;;;;;;;;;;13.30;100.00;100721.25;3057545;19;19948;-51
2022/11/01 00:41:48;;;;;;;;;;;;;;;13.31;100.00;100717.59;3057650;19;19948;-48
2022/11/01 00:42:50;;;;;;;;;;;;;;;13.31;100.00;100722.97;3057380;19;19935;-46
2022/11/01 00:43:55;;;;;;;;;;;;;;;13.30;100.00;100712.34;3057369;19;19922;-47
2022/11/01 00:44:57;;;;;;;;;;;;;;;13.29;100.00;100714.16;3056111;19;19922;-50
2022/11/01 00:46:01;;;;;;;;;;;;;;;13.28;100.00;100712.44;3056532;19;19919;-46
2022/11/01 00:47:03;;;;;;;;;;;;;;;13.27;100.00;100712.59;3056730;19;19922;-47
2022/11/01 00:48:08;;;;;;;;;;;;;;;13.25;100.00;100707.31;3056291;19;19944;-46
2022/11/01 00:49:10;;;;;;;;;;;;;;;13.27;100.00;100710.75;3056330;19;19910;-47
2022/11/01 00:50:15;;;;;;;;;;;;;;;13.26;100.00;100709.03;3057390;19;19975;-47
2022/11/01 00:51:16;;;;;;;;;;;;;;;13.26;100.00;100714.41;3056752;19;19923;-51
2022/11/01 00:52:21;;;;;;;;;;;;;;;13.25;100.00;100707.31;3057290;19;20405;-46
2022/11/01 00:53:23;;;;;;;;;;;;;;;13.25;100.00;100701.97;3056959;19;19946;-47
2022/11/01 00:54:27;;;;;;;;;;;;;;;13.26;100.00;100714.41;3056772;19;19955;-49
2022/11/01 00:55:29;;;;;;;;;;;;;;;13.27;100.00;100708.06;3056937;19;19964;-49
2022/11/01 00:56:33;;;;;;;;;;;;;;;13.26;100.00;100709.03;3057009;19;19922;-46
2022/11/01 00:57:35;;;;;;;;;;;;;;;13.25;100.00;100701.97;3056317;19;20354;-46
2022/11/01 00:58:39;;;;;;;;;;;;;;;13.25;100.00;100712.69;3057423;19;19943;-47
2022/11/01 00:59:41;;;;;;;;;;;;;;;13.27;100.00;100704.53;3056783;19;19923;-51
2022/11/01 01:00:46;;;;;;;;;;;;;;;13.25;100.00;100696.59;3057205;19;19942;-47
2022/11/01 01:01:48;;;;;;;;;;;;;;;13.26;100.00;100702.81;3056806;19;19930;-47
2022/11/01 01:02:52;;;;;;;;;;;;;;;13.25;100.00;100701.97;3056996;19;19919;-50
2022/11/01 01:03:54;;;;;;;;;;;;;;;13.28;100.00;100701.72;3057280;19;19923;-47
2022/11/01 01:04:58;;;;;;;;;;;;;;;13.29;100.00;100708.81;3055457;19;19919;-49
2022/11/01 01:06:00;;;;;;;;;;;;;;;13.29;100.00;100703.44;3055890;19;19923;-47
2022/11/01 01:07:05;;;;;;;;;;;;;;;13.30;100.00;100705.16;3056136;19;19923;-51
2022/11/01 01:08:06;;;;;;;;;;;;;;;13.30;100.00;100704.31;3055999;19;20257;-46
2022/11/01 01:09:11;;;;;;;;;;;;;;;13.29;100.00;100702.59;3057081;19;20327;-47
2022/11/01 01:10:13;;;;;;;;;;;;;;;13.29;100.00;100698.09;3056626;19;20390;-48
2022/11/01 01:11:18;;;;;;;;;;;;;;;13.29;100.00;100697.22;3057114;19;19950;-48
2022/11/01 01:12:19;;;;;;;;;;;;;;;13.29;100.00;100698.09;3056635;19;19918;-48
2022/11/01 01:13:24;;;;;;;;;;;;;;;13.29;100.00;100692.72;3056739;19;20215;-49
2022/11/01 01:14:26;;;;;;;;;;;;;;;13.30;100.00;100694.44;3056519;19;19942;-49
2022/11/01 01:15:35;;;;;;;;;;;;;;;13.30;100.00;100690.91;3056909;19;19919;-50
2022/11/01 01:16:37;;;;;;;;;;;;;;;13.30;100.00;100693.59;3055746;19;19918;-47
2022/11/01 01:17:42;;;;;;;;;;;;;;;13.30;100.00;100694.44;3056382;19;19923;-47
2022/11/01 01:18:43;;;;;;;;;;;;;;;13.29;100.00;100690.03;3056640;19;19944;-46
2022/11/01 01:19:48;;;;;;;;;;;;;;;13.30;100.00;100694.44;3056199;19;19939;-49
2022/11/01 01:20:52;;;;;;;;;;;;;;;13.30;100.00;100688.22;3056596;19;20342;-50
2022/11/01 01:21:54;;;;;;;;;;;;;;;13.30;100.00;100694.44;3056645;19;19955;-48
2022/11/01 01:22:59;;;;;;;;;;;;;;;13.29;100.00;100687.38;3056561;19;19950;-52
2022/11/01 01:24:00;;;;;;;;;;;;;;;13.28;100.00;100691.00;3056796;19;19915;-47
2022/11/01 01:25:05;;;;;;;;;;;;;;;13.28;100.00;100696.38;3056009;19;19926;-49
2022/11/01 01:26:08;;;;;;;;;;;;;;;13.28;100.00;100696.38;3056538;19;19911;-50
2022/11/01 01:27:16;;;;;;;;;;;;;;;13.28;100.00;100693.69;3056341;19;19918;-47
2022/11/01 01:28:18;;;;;;;;;;;;;;;13.31;100.00;100685.44;3056758;19;19958;-49
2022/11/01 01:29:22;;;;;;;;;;;;;;;13.29;100.00;100687.38;3056260;19;20351;-46
2022/11/01 01:30:24;;;;;;;;;;;;;;;13.29;100.00;100698.09;3056557;19;19919;-50
2022/11/01 01:31:28;;;;;;;;;;;;;;;13.27;100.00;100689.31;3055620;19;19919;-49
2022/11/01 01:32:30;;;;;;;;;;;;;;;13.24;100.00;100686.84;3055834;19;19949;-49
2022/11/01 01:33:34;;;;;;;;;;;;;;;13.22;100.00;100686.09;3055533;19;19922;-45
2022/11/01 01:34:36;;;;;;;;;;;;;;;13.22;100.00;100686.09;3055709;19;19923;-51
2022/11/01 01:35:41;;;;;;;;;;;;;;;13.24;100.00;100683.31;3056303;19;19950;-49
2022/11/01 01:36:43;;;;;;;;;;;;;;;13.25;100.00;100683.19;3056338;19;20602;-47
2022/11/01 01:37:47;;;;;;;;;;;;;;;13.27;100.00;100678.59;3056156;19;19997;-45
2022/11/01 01:38:52;;;;;;;;;;;;;;;13.28;100.00;100674.94;3056675;19;19919;-47
2022/11/01 01:39:57;;;;;;;;;;;;;;;13.29;100.00;100679.31;3057039;19;19930;-50
2022/11/01 01:41:54;;;;;;;;;;;;;;;13.30;100.00;100673.00;3056032;19;20310;-48
2022/11/01 01:42:26;;;;;;;;;;;;;;;13.29;100.00;100671.28;3055769;19;19919;-49
2022/11/01 01:43:39;;;;;;;;;;;;;;;13.30;100.00;100673.00;3056505;19;19926;-51
2022/11/01 01:45:07;;;;;;;;;;;;;;;13.30;100.00;100662.28;3055928;19;20746;-46
2022/11/01 01:46:09;;;;;;;;;;;;;;;13.30;100.00;100675.69;3055336;19;19939;-51
2022/11/01 01:47:19;;;;;;;;;;;;;;;13.31;100.00;100669.34;3056283;19;19934;-46
2022/11/01 01:48:22;;;;;;;;;;;;;;;13.30;100.00;100666.78;3056445;19;20653;-49
2022/11/01 01:49:26;;;;;;;;;;;;;;;13.31;100.00;100666.69;3056474;19;19929;-49
2022/11/01 01:50:28;;;;;;;;;;;;;;;13.31;100.00;100674.72;3055886;19;19923;-50
2022/11/01 01:51:33;;;;;;;;;;;;;;;13.31;100.00;100674.72;3055730;19;20354;-48
2022/11/01 01:52:37;;;;;;;;;;;;;;;13.30;100.00;100666.78;3056426;19;19927;-49
2022/11/01 01:53:42;;;;;;;;;;;;;;;13.30;100.00;100673.00;3055079;19;19926;-50
2022/11/01 01:54:44;;;;;;;;;;;;;;;13.30;100.00;100673.00;3055518;19;20322;-47
2022/11/01 01:55:50;;;;;;;;;;;;;;;13.29;100.00;100665.91;3054810;19;19930;-46
2022/11/01 01:56:52;;;;;;;;;;;;;;;13.29;100.00;100665.91;3055386;19;19948;-50
2022/11/01 01:57:56;;;;;;;;;;;;;;;13.29;100.00;100671.28;3055078;19;20628;-47
2022/11/01 01:59:05;;;;;;;;;;;;;;;13.30;100.00;100672.13;3055605;19;19923;-50
2022/11/01 02:00:08;;;;;;;;;;;;;;;13.29;100.00;100665.06;3055035;19;19927;-47
2022/11/01 02:01:16;;;;;;;;;;;;;;;13.28;100.00;100669.56;3055736;19;20239;-47
2022/11/01 02:02:18;;;;;;;;;;;;;;;13.28;100.00;100669.56;3055217;19;19926;-51
2022/11/01 02:03:23;;;;;;;;;;;;;;;13.27;100.00;100665.19;3055313;19;19937;-47
2022/11/01 02:04:27;;;;;;;;;;;;;;;13.26;100.00;100667.97;3055871;19;19915;-48
2022/11/01 02:05:38;;;;;;;;;;;;;;;13.27;100.00;100677.75;3055299;19;19940;-47
2022/11/01 02:06:40;;;;;;;;;;;;;;;13.24;100.00;100668.09;3055409;19;19915;-48
2022/11/01 02:07:41;;;;;;;;;;;;;;;13.25;100.00;100669.81;3056235;19;20013;-52
2022/11/01 02:08:47;;;;;;;;;;;;;;;13.24;100.00;100668.09;3055863;19;19942;-44
2022/11/01 02:09:49;;;;;;;;;;;;;;;13.25;100.00;100668.94;3055298;19;19926;-46
2022/11/01 02:10:53;;;;;;;;;;;;;;;13.24;100.00;100657.38;3054891;19;19915;-48
2022/11/01 02:11:56;;;;;;;;;;;;;;;13.25;100.00;100669.81;3055649;19;19922;-49
2022/11/01 02:13:01;;;;;;;;;;;;;;;13.28;100.00;100663.38;3055099;19;19923;-48
2022/11/01 02:14:02;;;;;;;;;;;;;;;13.28;100.00;100656.16;3055186;19;19926;-48
2022/11/01 02:15:12;;;;;;;;;;;;;;;13.32;100.00;100659.50;3055629;19;20330;-47
2022/11/01 02:16:19;;;;;;;;;;;;;;;13.33;100.00;100656.72;3055110;19;19930;-51
2022/11/01 02:17:40;;;;;;;;;;;;;;;13.35;100.00;100661.97;3055659;19;19947;-47
2022/11/01 02:19:11;;;;;;;;;;;;;;;13.39;100.00;100659.94;3055435;19;19926;-48
2022/11/01 02:20:31;;;;;;;;;;;;;;;13.41;100.00;100657.97;3054418;19;19918;-50
2022/11/01 02:22:08;;;;;;;;;;;;;;;13.41;100.00;100655.31;3056341;19;19926;-46
2022/11/01 02:23:32;;;;;;;;;;;;;;;13.42;100.00;100648.97;3054361;19;20487;-51
2022/11/01 02:24:49;;;;;;;;;;;;;;;13.41;100.00;100636.53;3055153;19;19934;-47
2022/11/01 02:25:50;;;;;;;;;;;;;;;13.40;100.00;100640.22;3055438;19;19942;-50
2022/11/01 02:26:55;;;;;;;;;;;;;;;13.40;100.00;100642.88;3055691;19;19934;-48
2022/11/01 02:27:59;;;;;;;;;;;;;;;13.40;100.00;100634.84;3055668;19;20365;-49
2022/11/01 02:29:10;;;;;;;;;;;;;;;13.41;100.00;100631.16;3055550;19;19983;-47
2022/11/01 02:30:15;;;;;;;;;;;;;;;13.40;100.00;100633.03;3056087;19;19930;-47
2022/11/01 02:31:26;;;;;;;;;;;;;;;13.42;100.00;100619.47;3055479;19;20266;-47
2022/11/01 02:32:46;;;;;;;;;;;;;;;13.42;100.00;100624.84;3056062;19;19922;-49
2022/11/01 02:33:49;;;;;;;;;;;;;;;13.40;100.00;100608.91;3054475;19;19922;-49
2022/11/01 02:34:53;;;;;;;;;;;;;;;13.41;100.00;100617.78;3055171;19;19922;-50
2022/11/01 02:36:00;;;;;;;;;;;;;;;13.38;100.00;100609.97;3054916;19;19926;-48
2022/11/01 02:37:07;;;;;;;;;;;;;;;13.34;100.00;100612.84;3055115;19;19914;-51
2022/11/01 02:38:34;;;;;;;;;;;;;;;13.33;100.00;100607.59;3058399;19;20319;-48
2022/11/01 02:39:38;;;;;;;;;;;;;;;13.33;100.00;100612.97;3057658;19;19915;-49
2022/11/01 02:40:47;;;;;;;;;;;;;;;13.33;100.00;100611.16;3058456;19;19923;-47
2022/11/01 02:42:02;;;;;;;;;;;;;;;13.32;100.00;100606.75;3057930;19;20342;-48
2022/11/01 02:43:06;;;;;;;;;;;;;;;13.33;100.00;100608.47;3057738;19;19929;-49
2022/11/01 02:44:13;;;;;;;;;;;;;;;13.32;100.00;100604.06;3057924;19;19919;-46
2022/11/01 02:45:27;;;;;;;;;;;;;;;13.34;100.00;100609.31;3058293;19;19934;-50
2022/11/01 02:47:51;;;;;;;;;;;;;;;13.34;100.00;100603.97;3057768;19;19922;-47
2022/11/01 02:48:53;;;;;;;;;;;;;;;13.35;100.00;100600.31;3058199;19;19980;-48
2022/11/01 02:49:58;;;;;;;;;;;;;;;13.35;100.00;100594.94;3057372;19;20437;-48
2022/11/01 02:51:00;;;;;;;;;;;;;;;13.35;100.00;100600.31;3058163;19;19954;-50
2022/11/01 02:52:05;;;;;;;;;;;;;;;13.37;100.00;100600.22;3057835;19;19917;-49
2022/11/01 02:53:09;;;;;;;;;;;;;;;13.37;100.00;100598.38;3057974;19;20395;-48
2022/11/01 02:54:19;;;;;;;;;;;;;;;13.38;100.00;100602.78;3057600;19;19927;-47
2022/11/01 02:55:34;;;;;;;;;;;;;;;13.39;100.00;100595.59;3058357;19;19915;-47
2022/11/01 02:56:37;;;;;;;;;;;;;;;13.39;100.00;100595.59;3057869;19;19947;-45
2022/11/01 02:57:42;;;;;;;;;;;;;;;13.40;100.00;100602.69;3057866;19;19951;-51
2022/11/01 02:58:44;;;;;;;;;;;;;;;13.40;100.00;100598.19;3057823;19;19943;-51
2022/11/01 02:59:49;;;;;;;;;;;;;;;13.42;100.00;100590.00;3057447;19;19927;-46
2022/11/01 03:00:51;;;;;;;;;;;;;;;13.43;100.00;100583.66;3058624;19;19926;-46
2022/11/01 03:02:38;;;;;;;;;;;;;;;13.45;100.00;100579.06;3058467;19;19971;-46
2022/11/01 03:03:43;;;;;;;;;;;;;;;13.45;100.00;100587.97;3057573;19;19992;-48
2022/11/01 03:04:45;;;;;;;;;;;;;;;13.46;100.00;100575.41;3057573;19;19918;-50
2022/11/01 03:05:58;;;;;;;;;;;;;;;13.46;100.00;100578.09;3057644;19;19942;-49
2022/11/01 03:07:00;;;;;;;;;;;;;;;13.45;100.00;100573.69;3057437;19;19919;-51
2022/11/01 03:08:06;;;;;;;;;;;;;;;13.45;100.00;100573.69;3057814;19;19930;-50
2022/11/01 03:09:09;;;;;;;;;;;;;;;13.44;100.00;100577.34;3057291;19;19915;-48
2022/11/01 03:10:13;;;;;;;;;;;;;;;13.43;100.00;100570.28;3057838;19;19942;-48
2022/11/01 03:11:16;;;;;;;;;;;;;;;13.43;100.00;100570.28;3058070;19;19939;-47
2022/11/01 03:12:27;;;;;;;;;;;;;;;13.43;100.00;100571.13;3057433;19;19952;-49
2022/11/01 03:13:51;;;;;;;;;;;;;;;13.44;100.00;100571.97;3057610;19;19925;-47
2022/11/01 03:15:03;;;;;;;;;;;;;;;13.44;100.00;100574.66;3057703;19;20311;-49
2022/11/01 03:16:10;;;;;;;;;;;;;;;13.45;100.00;100579.06;3057748;19;20072;-48
2022/11/01 03:17:31;;;;;;;;;;;;;;;13.45;100.00;100579.06;3057640;19;19948;-45
2022/11/01 03:18:38;;;;;;;;;;;;;;;13.46;100.00;100583.47;3058769;19;19923;-48
2022/11/01 03:19:46;;;;;;;;;;;;;;;13.47;100.00;100582.50;3055782;19;19923;-45
2022/11/01 03:20:55;;;;;;;;;;;;;;;13.47;100.00;100574.44;3058346;19;20264;-52
2022/11/01 03:22:03;;;;;;;;;;;;;;;13.49;100.00;100581.44;3060031;19;19927;-50
2022/11/01 03:23:07;;;;;;;;;;;;;;;13.51;100.00;100587.53;3059745;19;20025;-46
2022/11/01 03:24:23;;;;;;;;;;;;;;;13.53;100.00;100588.25;3058827;19;20290;-47
2022/11/01 03:25:43;;;;;;;;;;;;;;;13.52;100.00;100585.72;3057403;19;19922;-48
2022/11/01 03:26:45;;;;;;;;;;;;;;;13.51;100.00;100584.00;3057586;19;19918;-46
2022/11/01 03:27:49;;;;;;;;;;;;;;;13.51;100.00;100589.38;3058056;19;19964;-47
2022/11/01 03:28:52;;;;;;;;;;;;;;;13.51;100.00;100586.69;3058305;19;19942;-50
2022/11/01 03:30:17;;;;;;;;;;;;;;;13.50;100.00;100587.66;3058305;19;19925;-51
2022/11/01 03:31:19;;;;;;;;;;;;;;;13.48;100.00;100590.44;3057721;19;19923;-48
2022/11/01 03:32:25;;;;;;;;;;;;;;;13.46;100.00;100594.19;3057099;19;19972;-50
2022/11/01 03:33:27;;;;;;;;;;;;;;;13.44;100.00;100590.75;3057400;19;19919;-50
2022/11/01 03:34:31;;;;;;;;;;;;;;;13.42;100.00;100600.72;3056206;19;19927;-49
2022/11/01 03:35:36;;;;;;;;;;;;;;;13.40;100.00;100591.97;3057248;19;19914;-46
2022/11/01 03:36:41;;;;;;;;;;;;;;;13.40;100.00;100591.97;3057427;19;20386;-48
2022/11/01 03:37:43;;;;;;;;;;;;;;;13.40;100.00;100591.97;3057298;19;19925;-48
2022/11/01 03:38:52;;;;;;;;;;;;;;;13.41;100.00;100588.28;3057371;19;19922;-48
2022/11/01 03:39:54;;;;;;;;;;;;;;;13.40;100.00;100582.09;3056581;19;19923;-47
2022/11/01 03:40:59;;;;;;;;;;;;;;;13.41;100.00;100583.78;3057188;19;19982;-47
2022/11/01 03:42:02;;;;;;;;;;;;;;;13.40;100.00;100583.91;3057088;19;19948;-47
2022/11/01 03:43:07;;;;;;;;;;;;;;;13.40;100.00;100590.13;3058287;19;19927;-49
2022/11/01 03:44:10;;;;;;;;;;;;;;;13.40;100.00;100592.81;3056898;19;20391;-47
2022/11/01 03:45:14;;;;;;;;;;;;;;;13.41;100.00;100594.50;3057475;19;20009;-46
2022/11/01 03:46:16;;;;;;;;;;;;;;;13.41;100.00;100588.28;3057206;19;19915;-47
2022/11/01 03:47:20;;;;;;;;;;;;;;;13.36;100.00;100585.09;3057349;19;19930;-48
2022/11/01 03:48:22;;;;;;;;;;;;;;;13.40;100.00;100591.97;3057176;19;19921;-49
2022/11/01 03:49:26;;;;;;;;;;;;;;;13.38;100.00;100594.75;3054646;19;20024;-46
2022/11/01 03:50:28;;;;;;;;;;;;;;;13.34;100.00;100590.56;3058023;19;19929;-51
2022/11/01 03:51:33;;;;;;;;;;;;;;;13.32;100.00;100587.97;3057196;19;20074;-49
2022/11/01 03:52:34;;;;;;;;;;;;;;;13.29;100.00;100590.88;3058117;19;19915;-45
2022/11/01 03:53:39;;;;;;;;;;;;;;;13.27;100.00;100590.16;3058137;19;19981;-46
2022/11/01 03:54:41;;;;;;;;;;;;;;;13.26;100.00;100590.25;3057911;19;19919;-48
2022/11/01 03:55:45;;;;;;;;;;;;;;;13.23;100.00;100585.09;3057654;19;19935;-46
2022/11/01 03:56:47;;;;;;;;;;;;;;;13.18;100.00;100588.09;3058171;19;19923;-48
2022/11/01 03:57:56;;;;;;;;;;;;;;;13.16;100.00;100579.31;3057868;19;19919;-45
2022/11/01 03:58:57;;;;;;;;;;;;;;;13.14;100.00;100580.38;3056799;19;19918;-48
2022/11/01 04:00:02;;;;;;;;;;;;;;;13.13;100.00;100579.50;3057024;19;19934;-46
2022/11/01 04:01:13;;;;;;;;;;;;;;;13.11;100.00;100572.53;3057751;19;19946;-48
2022/11/01 04:02:18;;;;;;;;;;;;;;;13.07;100.00;100563.00;3058210;19;19918;-50
2022/11/01 04:03:19;;;;;;;;;;;;;;;13.07;100.00;100568.34;3057831;19;20021;-50
2022/11/01 04:04:24;;;;;;;;;;;;;;;13.04;100.00;100564.06;3057940;19;19919;-44
2022/11/01 04:05:27;;;;;;;;;;;;;;;13.04;100.00;100561.38;3057683;19;19930;-48
2022/11/01 04:06:31;;;;;;;;;;;;;;;13.02;100.00;100557.97;3058034;19;20067;-49
2022/11/01 04:07:33;;;;;;;;;;;;;;;13.03;100.00;100557.03;3057816;19;19918;-49
2022/11/01 04:08:38;;;;;;;;;;;;;;;13.02;100.00;100557.97;3058058;19;19927;-49
2022/11/01 04:09:40;;;;;;;;;;;;;;;13.01;100.00;100556.28;3057760;19;19927;-47
2022/11/01 04:10:44;;;;;;;;;;;;;;;12.99;100.00;100558.19;3057841;19;19926;-48
2022/11/01 04:11:46;;;;;;;;;;;;;;;12.98;100.00;100564.50;3057971;19;20271;-46
2022/11/01 04:12:51;;;;;;;;;;;;;;;12.95;100.00;100567.41;3057919;19;19935;-48
2022/11/01 04:20:31;;;;;;;;;;;;;;;12.93;100.00;100566.66;3057644;19;19915;-50
2022/11/01 04:20:38;;;;;;;;;;;;;;;12.71;100.00;100572.66;3056595;19;19938;-52
2022/11/01 04:21:39;;;;;;;;;;;;;;;12.67;100.00;100570.31;3056717;19;19926;-47
2022/11/01 04:22:44;;;;;;;;;;;;;;;12.63;100.00;100567.81;3056854;19;20430;-49
2022/11/01 04:23:46;;;;;;;;;;;;;;;12.63;100.00;100572.31;3056781;19;19939;-48
2022/11/01 04:24:50;;;;;;;;;;;;;;;12.58;100.00;100567.28;3057627;19;19922;-48
2022/11/01 04:25:52;;;;;;;;;;;;;;;12.58;100.00;100563.75;3057466;19;19915;-49
2022/11/01 04:26:57;;;;;;;;;;;;;;;12.55;100.00;100559.47;3058008;19;20626;-49
2022/11/01 04:27:59;;;;;;;;;;;;;;;12.51;100.00;100551.75;3057455;19;19950;-46
2022/11/01 04:29:03;;;;;;;;;;;;;;;12.49;100.00;100553.66;3057446;19;19950;-44
2022/11/01 04:30:05;;;;;;;;;;;;;;;12.46;100.00;100554.72;3056480;19;19919;-48
2022/11/01 04:31:10;;;;;;;;;;;;;;;12.44;100.00;100558.47;3056629;19;19944;-51
2022/11/01 04:32:12;;;;;;;;;;;;;;;12.36;100.00;100552.78;3056583;19;20357;-47
2022/11/01 04:33:16;;;;;;;;;;;;;;;12.34;100.00;100557.38;3057535;19;19924;-49
2022/11/01 04:34:40;;;;;;;;;;;;;;;12.31;100.00;100558.47;3056457;19;19936;-48
2022/11/01 04:35:42;;;;;;;;;;;;;;;12.31;100.00;100546.91;3056846;19;19922;-47
2022/11/01 04:36:44;;;;;;;;;;;;;;;12.30;100.00;100551.41;3057226;19;19947;-49
2022/11/01 04:37:48;;;;;;;;;;;;;;;12.30;100.00;100559.44;3057448;19;19919;-50
2022/11/01 04:38:55;;;;;;;;;;;;;;;12.31;100.00;100554.94;3057067;19;19922;-48
2022/11/01 04:39:57;;;;;;;;;;;;;;;12.30;100.00;100556.75;3056434;19;20339;-45
2022/11/01 04:41:01;;;;;;;;;;;;;;;12.31;100.00;100557.59;3055400;19;20637;-49
2022/11/01 04:42:03;;;;;;;;;;;;;;;12.30;100.00;100556.75;3057759;19;19929;-46
2022/11/01 04:43:07;;;;;;;;;;;;;;;12.30;100.00;100555.91;3056996;19;19915;-47
2022/11/01 04:44:09;;;;;;;;;;;;;;;12.29;100.00;100557.72;3057442;19;19922;-46
2022/11/01 04:45:13;;;;;;;;;;;;;;;12.30;100.00;100548.72;3057164;19;20230;-49
2022/11/01 04:46:16;;;;;;;;;;;;;;;12.30;100.00;100546.03;3057474;19;19979;-45
2022/11/01 04:47:20;;;;;;;;;;;;;;;12.31;100.00;100557.59;3057158;19;19919;-48
2022/11/01 04:48:22;;;;;;;;;;;;;;;12.31;100.00;100547.75;3057359;19;19955;-47
2022/11/01 04:49:26;;;;;;;;;;;;;;;12.31;100.00;100542.41;3057049;19;19923;-47
2022/11/01 04:50:28;;;;;;;;;;;;;;;12.32;100.00;100537.91;3057142;19;20338;-47
2022/11/01 04:51:33;;;;;;;;;;;;;;;12.31;100.00;100537.06;3056700;19;20337;-48
2022/11/01 04:52:35;;;;;;;;;;;;;;;12.33;100.00;100542.28;3057085;19;19922;-48
2022/11/01 04:53:39;;;;;;;;;;;;;;;12.34;100.00;100544.84;3056606;19;19915;-51
2022/11/01 04:54:41;;;;;;;;;;;;;;;12.34;100.00;100539.50;3056820;19;19926;-46
2022/11/01 04:55:45;;;;;;;;;;;;;;;12.34;100.00;100542.19;3056925;19;19947;-47
2022/11/01 04:56:47;;;;;;;;;;;;;;;12.33;100.00;100548.50;3057234;19;20298;-45
2022/11/01 04:57:51;;;;;;;;;;;;;;;12.35;100.00;100548.38;3057146;19;19919;-45
2022/11/01 04:58:53;;;;;;;;;;;;;;;12.35;100.00;100551.94;3056730;19;19923;-48
2022/11/01 04:59:58;;;;;;;;;;;;;;;12.35;100.00;100546.56;3056882;19;19950;-47
2022/11/01 05:01:05;;;;;;;;;;;;;;;12.34;100.00;100552.88;3055510;19;19930;-44
2022/11/01 05:02:07;;;;;;;;;;;;;;;12.33;100.00;100544.97;3057209;19;19923;-49
2022/11/01 05:03:13;;;;;;;;;;;;;;;12.33;100.00;100551.16;3056841;19;20415;-50
2022/11/01 05:04:14;;;;;;;;;;;;;;;12.31;100.00;100545.09;3056854;19;20310;-48
2022/11/01 05:05:19;;;;;;;;;;;;;;;12.28;100.00;100542.63;3056757;19;19919;-46
2022/11/01 05:06:21;;;;;;;;;;;;;;;12.26;100.00;100544.53;3057213;19;20456;-47
2022/11/01 05:07:26;;;;;;;;;;;;;;;12.23;100.00;100555.44;3056603;19;19926;-50
2022/11/01 05:08:28;;;;;;;;;;;;;;;12.21;100.00;100554.66;3057318;19;19978;-48
2022/11/01 05:09:33;;;;;;;;;;;;;;;12.19;100.00;100556.63;3056348;19;19933;-48
2022/11/01 05:10:36;;;;;;;;;;;;;;;12.16;100.00;100546.13;3057245;19;19922;-50
2022/11/01 05:11:40;;;;;;;;;;;;;;;12.16;100.00;100548.78;3055722;19;19942;-46
2022/11/01 05:12:42;;;;;;;;;;;;;;;12.13;100.00;100549.84;3056171;19;19987;-47
2022/11/01 05:13:47;;;;;;;;;;;;;;;12.12;100.00;100549.94;3056365;19;19923;-51
2022/11/01 05:14:49;;;;;;;;;;;;;;;12.11;100.00;100545.56;3057100;19;19918;-45
2022/11/01 05:16:00;;;;;;;;;;;;;;;12.13;100.00;100554.34;3056855;19;19915;-48
2022/11/01 05:17:22;;;;;;;;;;;;;;;12.11;100.00;100551.75;3056764;19;20551;-51
2022/11/01 05:18:26;;;;;;;;;;;;;;;12.12;100.00;100549.94;3056704;19;19915;-46
2022/11/01 05:19:28;;;;;;;;;;;;;;;12.13;100.00;100549.00;3056883;19;19923;-48
2022/11/01 05:20:32;;;;;;;;;;;;;;;12.12;100.00;100547.28;3056549;19;19935;-44
2022/11/01 05:21:34;;;;;;;;;;;;;;;12.12;100.00;100548.13;3056146;19;19926;-43
2022/11/01 05:22:39;;;;;;;;;;;;;;;12.13;100.00;100543.63;3056259;19;19999;-49
2022/11/01 05:23:41;;;;;;;;;;;;;;;12.13;100.00;100546.31;3057192;19;20054;-47
2022/11/01 05:24:45;;;;;;;;;;;;;;;12.12;100.00;100544.59;3056159;19;19968;-45
2022/11/01 05:25:47;;;;;;;;;;;;;;;12.13;100.00;100538.28;3056714;19;19922;-48
2022/11/01 05:26:51;;;;;;;;;;;;;;;12.14;100.00;100542.69;3056618;19;19914;-49
2022/11/01 05:27:57;;;;;;;;;;;;;;;12.14;100.00;100535.50;3056980;19;19922;-48
2022/11/01 05:29:02;;;;;;;;;;;;;;;12.15;100.00;100537.22;3056351;19;20338;-48
2022/11/01 05:30:21;;;;;;;;;;;;;;;12.16;100.00;100538.09;3056398;19;19919;-46
2022/11/01 05:31:23;;;;;;;;;;;;;;;12.17;100.00;100529.09;3056576;19;20295;-46
2022/11/01 05:32:27;;;;;;;;;;;;;;;12.18;100.00;100537.03;3055543;19;19919;-47
2022/11/01 05:33:29;;;;;;;;;;;;;;;12.18;100.00;100536.19;3056063;19;19927;-51
2022/11/01 05:34:34;;;;;;;;;;;;;;;12.19;100.00;100537.91;3055344;19;19922;-48
2022/11/01 05:35:35;;;;;;;;;;;;;;;12.19;100.00;100537.91;3056870;19;19919;-49
2022/11/01 05:36:40;;;;;;;;;;;;;;;12.18;100.00;100536.19;3056211;19;19922;-48
2022/11/01 05:37:42;;;;;;;;;;;;;;;12.20;100.00;100539.56;3056479;19;20370;-47
2022/11/01 05:38:46;;;;;;;;;;;;;;;12.19;100.00;100537.91;3055682;19;19923;-46